sensor_id;sensor_type;location;lat;lon;timestamp;P1;durP1;ratioP1;P2;durP2;ratioP2
77324;SDS011;66387;53.440;10.390;2023-05-07T00:02:24;13.40;;;10.27;;
77324;SDS011;66387;53.440;10.390;2023-05-07T00:04:50;13.30;;;8.85;;
77324;SDS011;66387;53.440;10.390;2023-05-07T00:07:17;10.00;;;7.70;;
77324;SDS011;66387;53.440;10.390;2023-05-07T00:09:42;11.90;;;7.85;;
77324;SDS011;66387;53.440;10.390;2023-05-07T00:12:07;11.53;;;8.57;;
77324;SDS011;66387;53.440;10.390;2023-05-07T00:14:32;12.90;;;7.47;;
77324;SDS011;66387;53.440;10.390;2023-05-07T00:16:58;11.40;;;7.40;;
77324;SDS011;66387;53.440;10.390;2023-05-07T00:19:23;13.45;;;7.53;;
77324;SDS011;66387;53.440;10.390;2023-05-07T00:21:49;12.50;;;8.35;;
77324;SDS011;66387;53.440;10.390;2023-05-07T00:24:14;11.60;;;8.03;;
77324;SDS011;66387;53.440;10.390;2023-05-07T00:26:39;10.85;;;8.80;;
77324;SDS011;66387;53.440;10.390;2023-05-07T00:29:04;13.10;;;8.97;;
77324;SDS011;66387;53.440;10.390;2023-05-07T00:31:30;11.40;;;8.57;;
77324;SDS011;66387;53.440;10.390;2023-05-07T00:33:55;11.47;;;7.50;;
77324;SDS011;66387;53.440;10.390;2023-05-07T00:36:20;9.87;;;7.03;;
77324;SDS011;66387;53.440;10.390;2023-05-07T00:38:45;10.40;;;7.10;;
77324;SDS011;66387;53.440;10.390;2023-05-07T00:41:11;11.53;;;9.00;;
77324;SDS011;66387;53.440;10.390;2023-05-07T00:43:36;9.95;;;7.03;;
77324;SDS011;66387;53.440;10.390;2023-05-07T00:46:01;9.87;;;6.73;;
77324;SDS011;66387;53.440;10.390;2023-05-07T00:48:27;9.15;;;6.68;;
77324;SDS011;66387;53.440;10.390;2023-05-07T00:50:52;9.43;;;8.20;;
77324;SDS011;66387;53.440;10.390;2023-05-07T00:53:18;10.70;;;7.55;;
77324;SDS011;66387;53.440;10.390;2023-05-07T00:55:43;13.20;;;8.45;;
77324;SDS011;66387;53.440;10.390;2023-05-07T00:58:09;11.65;;;7.68;;
77324;SDS011;66387;53.440;10.390;2023-05-07T01:00:34;10.50;;;7.50;;
77324;SDS011;66387;53.440;10.390;2023-05-07T01:03:00;10.63;;;6.82;;
77324;SDS011;66387;53.440;10.390;2023-05-07T01:05:26;11.18;;;7.60;;
77324;SDS011;66387;53.440;10.390;2023-05-07T01:07:53;10.40;;;7.88;;
77324;SDS011;66387;53.440;10.390;2023-05-07T01:10:20;9.77;;;7.60;;
77324;SDS011;66387;53.440;10.390;2023-05-07T01:12:46;10.18;;;7.72;;
77324;SDS011;66387;53.440;10.390;2023-05-07T01:15:14;10.20;;;7.78;;
77324;SDS011;66387;53.440;10.390;2023-05-07T01:17:40;10.15;;;7.40;;
77324;SDS011;66387;53.440;10.390;2023-05-07T01:20:06;9.77;;;6.97;;
77324;SDS011;66387;53.440;10.390;2023-05-07T01:22:33;11.02;;;7.68;;
77324;SDS011;66387;53.440;10.390;2023-05-07T01:24:59;9.57;;;6.78;;
77324;SDS011;66387;53.440;10.390;2023-05-07T01:27:26;8.90;;;6.97;;
77324;SDS011;66387;53.440;10.390;2023-05-07T01:29:51;10.45;;;6.93;;
77324;SDS011;66387;53.440;10.390;2023-05-07T01:32:17;9.60;;;7.33;;
77324;SDS011;66387;53.440;10.390;2023-05-07T01:34:46;10.20;;;7.72;;
77324;SDS011;66387;53.440;10.390;2023-05-07T01:39:39;10.55;;;6.93;;
77324;SDS011;66387;53.440;10.390;2023-05-07T01:42:05;16.70;;;7.03;;
77324;SDS011;66387;53.440;10.390;2023-05-07T01:44:30;10.07;;;6.75;;
77324;SDS011;66387;53.440;10.390;2023-05-07T01:46:56;9.73;;;6.63;;
77324;SDS011;66387;53.440;10.390;2023-05-07T01:49:22;9.50;;;7.47;;
77324;SDS011;66387;53.440;10.390;2023-05-07T01:51:47;9.32;;;6.55;;
77324;SDS011;66387;53.440;10.390;2023-05-07T01:54:13;9.82;;;7.05;;
77324;SDS011;66387;53.440;10.390;2023-05-07T01:56:39;10.52;;;6.88;;
77324;SDS011;66387;53.440;10.390;2023-05-07T01:59:04;9.13;;;6.30;;
77324;SDS011;66387;53.440;10.390;2023-05-07T02:01:30;7.97;;;6.00;;
77324;SDS011;66387;53.440;10.390;2023-05-07T02:03:55;11.20;;;6.90;;
77324;SDS011;66387;53.440;10.390;2023-05-07T02:06:20;9.07;;;6.32;;
77324;SDS011;66387;53.440;10.390;2023-05-07T02:08:46;9.05;;;6.60;;
77324;SDS011;66387;53.440;10.390;2023-05-07T02:11:11;9.75;;;7.10;;
77324;SDS011;66387;53.440;10.390;2023-05-07T02:13:37;9.83;;;6.67;;
77324;SDS011;66387;53.440;10.390;2023-05-07T02:16:02;9.63;;;6.13;;
77324;SDS011;66387;53.440;10.390;2023-05-07T02:18:28;10.95;;;7.63;;
77324;SDS011;66387;53.440;10.390;2023-05-07T02:20:56;11.77;;;8.07;;
77324;SDS011;66387;53.440;10.390;2023-05-07T02:23:22;10.67;;;8.53;;
77324;SDS011;66387;53.440;10.390;2023-05-07T02:25:47;11.60;;;8.53;;
77324;SDS011;66387;53.440;10.390;2023-05-07T02:28:12;11.00;;;7.33;;
77324;SDS011;66387;53.440;10.390;2023-05-07T02:30:38;12.23;;;8.73;;
77324;SDS011;66387;53.440;10.390;2023-05-07T02:33:03;13.88;;;8.82;;
77324;SDS011;66387;53.440;10.390;2023-05-07T02:35:28;14.05;;;8.38;;
77324;SDS011;66387;53.440;10.390;2023-05-07T02:37:54;11.77;;;7.73;;
77324;SDS011;66387;53.440;10.390;2023-05-07T02:40:19;10.83;;;7.93;;
77324;SDS011;66387;53.440;10.390;2023-05-07T02:42:44;11.27;;;7.72;;
77324;SDS011;66387;53.440;10.390;2023-05-07T02:45:10;11.83;;;7.87;;
77324;SDS011;66387;53.440;10.390;2023-05-07T02:47:35;13.43;;;10.10;;
77324;SDS011;66387;53.440;10.390;2023-05-07T02:50:01;11.93;;;7.67;;
77324;SDS011;66387;53.440;10.390;2023-05-07T02:52:26;10.32;;;7.63;;
77324;SDS011;66387;53.440;10.390;2023-05-07T02:54:51;10.40;;;7.80;;
77324;SDS011;66387;53.440;10.390;2023-05-07T02:57:17;10.83;;;7.90;;
77324;SDS011;66387;53.440;10.390;2023-05-07T02:59:42;10.20;;;6.90;;
77324;SDS011;66387;53.440;10.390;2023-05-07T03:02:07;9.32;;;7.22;;
77324;SDS011;66387;53.440;10.390;2023-05-07T03:04:33;9.57;;;6.70;;
77324;SDS011;66387;53.440;10.390;2023-05-07T03:06:58;9.60;;;6.83;;
77324;SDS011;66387;53.440;10.390;2023-05-07T03:09:23;10.83;;;7.43;;
77324;SDS011;66387;53.440;10.390;2023-05-07T03:11:48;9.60;;;7.27;;
77324;SDS011;66387;53.440;10.390;2023-05-07T03:14:14;10.00;;;7.45;;
77324;SDS011;66387;53.440;10.390;2023-05-07T03:16:39;11.03;;;7.93;;
77324;SDS011;66387;53.440;10.390;2023-05-07T03:19:05;10.27;;;7.43;;
77324;SDS011;66387;53.440;10.390;2023-05-07T03:21:30;11.95;;;8.27;;
77324;SDS011;66387;53.440;10.390;2023-05-07T03:23:58;11.75;;;7.68;;
77324;SDS011;66387;53.440;10.390;2023-05-07T03:26:23;14.67;;;7.63;;
77324;SDS011;66387;53.440;10.390;2023-05-07T03:28:49;11.00;;;8.20;;
77324;SDS011;66387;53.440;10.390;2023-05-07T03:31:14;10.98;;;7.43;;
77324;SDS011;66387;53.440;10.390;2023-05-07T03:33:49;10.47;;;7.50;;
77324;SDS011;66387;53.440;10.390;2023-05-07T03:36:18;8.32;;;6.47;;
77324;SDS011;66387;53.440;10.390;2023-05-07T03:38:43;9.38;;;6.95;;
77324;SDS011;66387;53.440;10.390;2023-05-07T03:41:09;10.77;;;7.57;;
77324;SDS011;66387;53.440;10.390;2023-05-07T03:43:34;9.98;;;6.90;;
77324;SDS011;66387;53.440;10.390;2023-05-07T03:46:00;10.10;;;6.67;;
77324;SDS011;66387;53.440;10.390;2023-05-07T03:48:25;8.98;;;7.13;;
77324;SDS011;66387;53.440;10.390;2023-05-07T03:50:51;7.85;;;6.53;;
77324;SDS011;66387;53.440;10.390;2023-05-07T03:53:16;9.93;;;7.35;;
77324;SDS011;66387;53.440;10.390;2023-05-07T03:55:41;6.90;;;6.10;;
77324;SDS011;66387;53.440;10.390;2023-05-07T03:58:07;10.82;;;7.40;;
77324;SDS011;66387;53.440;10.390;2023-05-07T04:00:32;9.93;;;6.63;;
77324;SDS011;66387;53.440;10.390;2023-05-07T04:03:02;8.25;;;5.80;;
77324;SDS011;66387;53.440;10.390;2023-05-07T04:05:28;9.40;;;6.35;;
77324;SDS011;66387;53.440;10.390;2023-05-07T04:07:54;8.20;;;5.97;;
77324;SDS011;66387;53.440;10.390;2023-05-07T04:10:19;8.30;;;6.03;;
77324;SDS011;66387;53.440;10.390;2023-05-07T04:12:44;8.93;;;6.83;;
77324;SDS011;66387;53.440;10.390;2023-05-07T04:15:09;10.53;;;6.63;;
77324;SDS011;66387;53.440;10.390;2023-05-07T04:17:35;9.70;;;6.72;;
77324;SDS011;66387;53.440;10.390;2023-05-07T04:20:00;11.00;;;7.10;;
77324;SDS011;66387;53.440;10.390;2023-05-07T04:22:25;10.57;;;6.77;;
77324;SDS011;66387;53.440;10.390;2023-05-07T04:24:51;8.33;;;6.23;;
77324;SDS011;66387;53.440;10.390;2023-05-07T04:27:16;13.17;;;7.60;;
77324;SDS011;66387;53.440;10.390;2023-05-07T04:29:41;8.93;;;6.30;;
77324;SDS011;66387;53.440;10.390;2023-05-07T04:32:08;9.98;;;6.78;;
77324;SDS011;66387;53.440;10.390;2023-05-07T04:34:34;8.13;;;6.35;;
77324;SDS011;66387;53.440;10.390;2023-05-07T04:36:59;12.87;;;6.77;;
77324;SDS011;66387;53.440;10.390;2023-05-07T04:39:24;9.10;;;6.45;;
77324;SDS011;66387;53.440;10.390;2023-05-07T04:41:50;10.00;;;7.30;;
77324;SDS011;66387;53.440;10.390;2023-05-07T04:44:15;8.93;;;6.80;;
77324;SDS011;66387;53.440;10.390;2023-05-07T04:46:40;11.10;;;7.60;;
77324;SDS011;66387;53.440;10.390;2023-05-07T04:49:05;11.37;;;7.33;;
77324;SDS011;66387;53.440;10.390;2023-05-07T04:51:31;10.43;;;6.80;;
77324;SDS011;66387;53.440;10.390;2023-05-07T04:53:57;10.35;;;7.30;;
77324;SDS011;66387;53.440;10.390;2023-05-07T04:56:22;10.80;;;7.60;;
77324;SDS011;66387;53.440;10.390;2023-05-07T04:58:48;11.80;;;7.67;;
77324;SDS011;66387;53.440;10.390;2023-05-07T05:01:13;9.25;;;7.47;;
77324;SDS011;66387;53.440;10.390;2023-05-07T05:03:38;9.87;;;6.70;;
77324;SDS011;66387;53.440;10.390;2023-05-07T05:06:04;10.23;;;7.07;;
77324;SDS011;66387;53.440;10.390;2023-05-07T05:08:30;11.80;;;7.10;;
77324;SDS011;66387;53.440;10.390;2023-05-07T05:10:56;10.90;;;7.45;;
77324;SDS011;66387;53.440;10.390;2023-05-07T05:13:21;10.67;;;7.40;;
77324;SDS011;66387;53.440;10.390;2023-05-07T05:15:46;9.43;;;6.67;;
77324;SDS011;66387;53.440;10.390;2023-05-07T05:18:11;11.33;;;8.83;;
77324;SDS011;66387;53.440;10.390;2023-05-07T05:20:37;9.77;;;6.80;;
77324;SDS011;66387;53.440;10.390;2023-05-07T05:23:02;10.30;;;7.00;;
77324;SDS011;66387;53.440;10.390;2023-05-07T05:25:27;9.30;;;6.90;;
77324;SDS011;66387;53.440;10.390;2023-05-07T05:27:53;10.40;;;7.30;;
77324;SDS011;66387;53.440;10.390;2023-05-07T05:30:18;9.90;;;6.97;;
77324;SDS011;66387;53.440;10.390;2023-05-07T05:32:43;6.72;;;5.95;;
77324;SDS011;66387;53.440;10.390;2023-05-07T05:35:09;10.67;;;6.67;;
77324;SDS011;66387;53.440;10.390;2023-05-07T05:37:34;8.90;;;6.47;;
77324;SDS011;66387;53.440;10.390;2023-05-07T05:39:59;9.63;;;7.03;;
77324;SDS011;66387;53.440;10.390;2023-05-07T05:42:25;9.07;;;6.70;;
77324;SDS011;66387;53.440;10.390;2023-05-07T05:44:50;11.63;;;7.03;;
77324;SDS011;66387;53.440;10.390;2023-05-07T05:47:15;9.73;;;7.00;;
77324;SDS011;66387;53.440;10.390;2023-05-07T05:49:41;8.63;;;6.75;;
77324;SDS011;66387;53.440;10.390;2023-05-07T05:52:08;10.07;;;6.88;;
77324;SDS011;66387;53.440;10.390;2023-05-07T05:54:33;9.10;;;6.53;;
77324;SDS011;66387;53.440;10.390;2023-05-07T05:56:59;8.63;;;6.72;;
77324;SDS011;66387;53.440;10.390;2023-05-07T05:59:24;10.03;;;6.53;;
77324;SDS011;66387;53.440;10.390;2023-05-07T06:01:49;9.68;;;7.40;;
77324;SDS011;66387;53.440;10.390;2023-05-07T06:04:15;7.43;;;6.40;;
77324;SDS011;66387;53.440;10.390;2023-05-07T06:06:40;11.30;;;6.43;;
77324;SDS011;66387;53.440;10.390;2023-05-07T06:09:06;8.37;;;5.63;;
77324;SDS011;66387;53.440;10.390;2023-05-07T06:11:31;7.60;;;6.33;;
77324;SDS011;66387;53.440;10.390;2023-05-07T06:13:57;7.53;;;6.22;;
77324;SDS011;66387;53.440;10.390;2023-05-07T06:16:22;9.57;;;6.70;;
77324;SDS011;66387;53.440;10.390;2023-05-07T06:18:49;8.38;;;6.43;;
77324;SDS011;66387;53.440;10.390;2023-05-07T06:21:15;8.57;;;6.40;;
77324;SDS011;66387;53.440;10.390;2023-05-07T06:23:40;8.73;;;6.20;;
77324;SDS011;66387;53.440;10.390;2023-05-07T06:26:05;9.45;;;7.35;;
77324;SDS011;66387;53.440;10.390;2023-05-07T06:28:31;8.90;;;6.07;;
77324;SDS011;66387;53.440;10.390;2023-05-07T06:33:39;8.93;;;6.13;;
77324;SDS011;66387;53.440;10.390;2023-05-07T06:36:05;8.73;;;6.47;;
77324;SDS011;66387;53.440;10.390;2023-05-07T06:38:31;7.00;;;5.40;;
77324;SDS011;66387;53.440;10.390;2023-05-07T06:40:56;7.67;;;5.50;;
77324;SDS011;66387;53.440;10.390;2023-05-07T06:43:22;7.38;;;5.43;;
77324;SDS011;66387;53.440;10.390;2023-05-07T06:45:47;7.45;;;5.38;;
77324;SDS011;66387;53.440;10.390;2023-05-07T06:48:13;8.50;;;6.07;;
77324;SDS011;66387;53.440;10.390;2023-05-07T06:50:38;6.57;;;5.37;;
77324;SDS011;66387;53.440;10.390;2023-05-07T06:53:03;7.73;;;5.93;;
77324;SDS011;66387;53.440;10.390;2023-05-07T06:55:28;7.63;;;5.67;;
77324;SDS011;66387;53.440;10.390;2023-05-07T06:57:54;8.60;;;5.67;;
77324;SDS011;66387;53.440;10.390;2023-05-07T07:00:19;7.57;;;5.57;;
77324;SDS011;66387;53.440;10.390;2023-05-07T07:02:44;9.95;;;6.35;;
77324;SDS011;66387;53.440;10.390;2023-05-07T07:05:10;10.87;;;7.67;;
77324;SDS011;66387;53.440;10.390;2023-05-07T07:07:35;6.32;;;5.47;;
77324;SDS011;66387;53.440;10.390;2023-05-07T07:10:00;7.00;;;5.50;;
77324;SDS011;66387;53.440;10.390;2023-05-07T07:12:26;7.13;;;6.15;;
77324;SDS011;66387;53.440;10.390;2023-05-07T07:14:53;10.38;;;5.97;;
77324;SDS011;66387;53.440;10.390;2023-05-07T07:17:19;7.17;;;5.00;;
77324;SDS011;66387;53.440;10.390;2023-05-07T07:19:44;7.77;;;5.17;;
77324;SDS011;66387;53.440;10.390;2023-05-07T07:22:09;6.13;;;5.07;;
77324;SDS011;66387;53.440;10.390;2023-05-07T07:24:35;8.88;;;6.38;;
77324;SDS011;66387;53.440;10.390;2023-05-07T07:27:00;7.93;;;5.73;;
77324;SDS011;66387;53.440;10.390;2023-05-07T07:29:25;9.87;;;5.43;;
77324;SDS011;66387;53.440;10.390;2023-05-07T07:31:51;8.55;;;6.22;;
77324;SDS011;66387;53.440;10.390;2023-05-07T07:34:17;7.38;;;5.07;;
77324;SDS011;66387;53.440;10.390;2023-05-07T07:36:42;7.53;;;6.27;;
77324;SDS011;66387;53.440;10.390;2023-05-07T07:39:07;9.73;;;6.03;;
77324;SDS011;66387;53.440;10.390;2023-05-07T07:41:32;9.37;;;6.53;;
77324;SDS011;66387;53.440;10.390;2023-05-07T07:43:58;8.23;;;6.03;;
77324;SDS011;66387;53.440;10.390;2023-05-07T07:46:23;6.97;;;5.57;;
77324;SDS011;66387;53.440;10.390;2023-05-07T07:48:48;8.00;;;6.50;;
77324;SDS011;66387;53.440;10.390;2023-05-07T07:51:14;9.30;;;6.77;;
77324;SDS011;66387;53.440;10.390;2023-05-07T07:53:39;7.13;;;5.88;;
77324;SDS011;66387;53.440;10.390;2023-05-07T07:56:06;8.98;;;6.30;;
77324;SDS011;66387;53.440;10.390;2023-05-07T07:58:31;8.40;;;5.60;;
77324;SDS011;66387;53.440;10.390;2023-05-07T08:00:56;8.37;;;6.30;;
77324;SDS011;66387;53.440;10.390;2023-05-07T08:03:21;8.53;;;6.30;;
77324;SDS011;66387;53.440;10.390;2023-05-07T08:05:47;6.32;;;5.47;;
77324;SDS011;66387;53.440;10.390;2023-05-07T08:08:14;6.72;;;5.88;;
77324;SDS011;66387;53.440;10.390;2023-05-07T08:10:40;7.68;;;5.80;;
77324;SDS011;66387;53.440;10.390;2023-05-07T08:13:05;8.18;;;5.95;;
77324;SDS011;66387;53.440;10.390;2023-05-07T08:15:30;6.40;;;5.33;;
77324;SDS011;66387;53.440;10.390;2023-05-07T08:17:56;7.28;;;5.55;;
77324;SDS011;66387;53.440;10.390;2023-05-07T08:20:24;7.13;;;5.28;;
77324;SDS011;66387;53.440;10.390;2023-05-07T08:22:50;6.03;;;5.07;;
77324;SDS011;66387;53.440;10.390;2023-05-07T08:25:16;7.85;;;5.57;;
77324;SDS011;66387;53.440;10.390;2023-05-07T08:27:41;7.47;;;5.53;;
77324;SDS011;66387;53.440;10.390;2023-05-07T08:30:06;7.73;;;5.20;;
77324;SDS011;66387;53.440;10.390;2023-05-07T08:32:32;8.00;;;5.75;;
77324;SDS011;66387;53.440;10.390;2023-05-07T08:34:57;7.50;;;5.30;;
77324;SDS011;66387;53.440;10.390;2023-05-07T08:37:23;6.70;;;5.97;;
77324;SDS011;66387;53.440;10.390;2023-05-07T08:39:48;7.33;;;6.23;;
77324;SDS011;66387;53.440;10.390;2023-05-07T08:42:13;7.73;;;5.53;;
77324;SDS011;66387;53.440;10.390;2023-05-07T08:44:41;7.57;;;5.88;;
77324;SDS011;66387;53.440;10.390;2023-05-07T08:47:11;8.00;;;5.13;;
77324;SDS011;66387;53.440;10.390;2023-05-07T08:49:37;6.32;;;5.28;;
77324;SDS011;66387;53.440;10.390;2023-05-07T08:52:03;6.05;;;5.18;;
77324;SDS011;66387;53.440;10.390;2023-05-07T08:54:28;7.13;;;5.10;;
77324;SDS011;66387;53.440;10.390;2023-05-07T08:56:54;7.63;;;5.78;;
77324;SDS011;66387;53.440;10.390;2023-05-07T08:59:19;8.60;;;5.10;;
77324;SDS011;66387;53.440;10.390;2023-05-07T09:01:44;6.80;;;5.33;;
77324;SDS011;66387;53.440;10.390;2023-05-07T09:04:10;5.18;;;4.65;;
77324;SDS011;66387;53.440;10.390;2023-05-07T09:06:37;5.63;;;5.03;;
77324;SDS011;66387;53.440;10.390;2023-05-07T09:09:06;5.90;;;4.60;;
77324;SDS011;66387;53.440;10.390;2023-05-07T09:11:31;8.67;;;5.87;;
77324;SDS011;66387;53.440;10.390;2023-05-07T09:13:57;5.97;;;5.20;;
77324;SDS011;66387;53.440;10.390;2023-05-07T09:16:25;8.60;;;4.88;;
77324;SDS011;66387;53.440;10.390;2023-05-07T09:18:51;7.53;;;5.85;;
77324;SDS011;66387;53.440;10.390;2023-05-07T09:21:18;6.28;;;4.60;;
77324;SDS011;66387;53.440;10.390;2023-05-07T09:23:44;6.05;;;4.90;;
77324;SDS011;66387;53.440;10.390;2023-05-07T09:26:10;8.20;;;5.75;;
77324;SDS011;66387;53.440;10.390;2023-05-07T09:28:40;6.03;;;4.78;;
77324;SDS011;66387;53.440;10.390;2023-05-07T09:31:09;6.13;;;4.63;;
77324;SDS011;66387;53.440;10.390;2023-05-07T09:33:35;6.07;;;4.60;;
77324;SDS011;66387;53.440;10.390;2023-05-07T09:36:07;6.45;;;5.22;;
77324;SDS011;66387;53.440;10.390;2023-05-07T09:38:34;5.70;;;4.50;;
77324;SDS011;66387;53.440;10.390;2023-05-07T09:41:01;6.03;;;4.90;;
77324;SDS011;66387;53.440;10.390;2023-05-07T09:43:31;6.13;;;5.20;;
77324;SDS011;66387;53.440;10.390;2023-05-07T09:45:58;6.00;;;5.03;;
77324;SDS011;66387;53.440;10.390;2023-05-07T09:48:24;7.03;;;5.40;;
77324;SDS011;66387;53.440;10.390;2023-05-07T09:50:51;6.35;;;5.53;;
77324;SDS011;66387;53.440;10.390;2023-05-07T09:53:21;6.97;;;5.15;;
77324;SDS011;66387;53.440;10.390;2023-05-07T09:55:47;6.20;;;5.03;;
77324;SDS011;66387;53.440;10.390;2023-05-07T09:58:13;6.55;;;5.65;;
77324;SDS011;66387;53.440;10.390;2023-05-07T10:00:39;6.55;;;5.40;;
77324;SDS011;66387;53.440;10.390;2023-05-07T10:03:07;5.55;;;4.97;;
77324;SDS011;66387;53.440;10.390;2023-05-07T10:05:34;7.57;;;5.28;;
77324;SDS011;66387;53.440;10.390;2023-05-07T10:08:00;6.68;;;5.85;;
77324;SDS011;66387;53.440;10.390;2023-05-07T10:10:26;5.90;;;5.30;;
77324;SDS011;66387;53.440;10.390;2023-05-07T10:12:52;6.18;;;4.80;;
77324;SDS011;66387;53.440;10.390;2023-05-07T10:15:18;6.75;;;4.95;;
77324;SDS011;66387;53.440;10.390;2023-05-07T10:17:44;6.82;;;5.18;;
77324;SDS011;66387;53.440;10.390;2023-05-07T10:20:10;6.40;;;5.43;;
77324;SDS011;66387;53.440;10.390;2023-05-07T10:22:43;6.68;;;4.35;;
77324;SDS011;66387;53.440;10.390;2023-05-07T10:25:31;6.10;;;5.13;;
77324;SDS011;66387;53.440;10.390;2023-05-07T10:30:26;6.32;;;4.55;;
77324;SDS011;66387;53.440;10.390;2023-05-07T10:33:19;6.78;;;4.55;;
77324;SDS011;66387;53.440;10.390;2023-05-07T10:35:49;6.25;;;4.20;;
77324;SDS011;66387;53.440;10.390;2023-05-07T10:38:14;5.90;;;4.82;;
77324;SDS011;66387;53.440;10.390;2023-05-07T10:40:40;5.22;;;4.63;;
77324;SDS011;66387;53.440;10.390;2023-05-07T10:43:05;5.50;;;4.35;;
77324;SDS011;66387;53.440;10.390;2023-05-07T10:45:31;6.10;;;4.10;;
77324;SDS011;66387;53.440;10.390;2023-05-07T10:48:12;5.57;;;4.32;;
77324;SDS011;66387;53.440;10.390;2023-05-07T10:50:42;5.40;;;4.22;;
77324;SDS011;66387;53.440;10.390;2023-05-07T10:55:43;5.47;;;3.72;;
77324;SDS011;66387;53.440;10.390;2023-05-07T10:58:26;5.28;;;4.22;;
77324;SDS011;66387;53.440;10.390;2023-05-07T11:03:22;9.73;;;4.47;;
77324;SDS011;66387;53.440;10.390;2023-05-07T11:05:47;4.97;;;4.00;;
77324;SDS011;66387;53.440;10.390;2023-05-07T11:08:52;7.50;;;4.35;;
77324;SDS011;66387;53.440;10.390;2023-05-07T11:11:18;6.10;;;3.90;;
77324;SDS011;66387;53.440;10.390;2023-05-07T11:13:47;3.80;;;3.45;;
77324;SDS011;66387;53.440;10.390;2023-05-07T11:16:24;5.32;;;3.45;;
77324;SDS011;66387;53.440;10.390;2023-05-07T11:18:54;4.40;;;3.13;;
77324;SDS011;66387;53.440;10.390;2023-05-07T11:23:58;3.60;;;3.10;;
77324;SDS011;66387;53.440;10.390;2023-05-07T11:26:24;4.10;;;3.05;;
77324;SDS011;66387;53.440;10.390;2023-05-07T11:28:50;3.67;;;3.00;;
77324;SDS011;66387;53.440;10.390;2023-05-07T11:31:20;5.35;;;4.38;;
77324;SDS011;66387;53.440;10.390;2023-05-07T11:33:47;4.60;;;3.60;;
77324;SDS011;66387;53.440;10.390;2023-05-07T11:36:13;3.97;;;3.47;;
77324;SDS011;66387;53.440;10.390;2023-05-07T11:38:38;6.85;;;3.80;;
77324;SDS011;66387;53.440;10.390;2023-05-07T11:41:03;3.90;;;2.70;;
77324;SDS011;66387;53.440;10.390;2023-05-07T11:43:32;4.43;;;3.22;;
77324;SDS011;66387;53.440;10.390;2023-05-07T11:48:36;3.70;;;3.03;;
77324;SDS011;66387;53.440;10.390;2023-05-07T11:51:02;3.83;;;2.83;;
77324;SDS011;66387;53.440;10.390;2023-05-07T11:53:35;5.22;;;3.55;;
77324;SDS011;66387;53.440;10.390;2023-05-07T11:58:34;3.63;;;2.70;;
77324;SDS011;66387;53.440;10.390;2023-05-07T12:00:59;4.43;;;3.70;;
77324;SDS011;66387;53.440;10.390;2023-05-07T12:03:24;4.63;;;3.57;;
77324;SDS011;66387;53.440;10.390;2023-05-07T12:05:50;3.87;;;3.37;;
77324;SDS011;66387;53.440;10.390;2023-05-07T12:08:18;4.18;;;3.20;;
77324;SDS011;66387;53.440;10.390;2023-05-07T12:10:45;3.55;;;3.13;;
77324;SDS011;66387;53.440;10.390;2023-05-07T12:13:15;3.28;;;2.67;;
77324;SDS011;66387;53.440;10.390;2023-05-07T12:15:45;4.15;;;2.70;;
77324;SDS011;66387;53.440;10.390;2023-05-07T12:18:17;3.60;;;2.65;;
77324;SDS011;66387;53.440;10.390;2023-05-07T12:20:43;3.35;;;2.40;;
77324;SDS011;66387;53.440;10.390;2023-05-07T12:23:08;2.70;;;2.15;;
77324;SDS011;66387;53.440;10.390;2023-05-07T12:25:41;2.77;;;2.37;;
77324;SDS011;66387;53.440;10.390;2023-05-07T12:28:13;2.80;;;2.22;;
77324;SDS011;66387;53.440;10.390;2023-05-07T12:30:40;3.25;;;2.30;;
77324;SDS011;66387;53.440;10.390;2023-05-07T12:33:07;3.20;;;2.15;;
77324;SDS011;66387;53.440;10.390;2023-05-07T12:35:36;2.57;;;2.33;;
77324;SDS011;66387;53.440;10.390;2023-05-07T12:38:09;2.75;;;2.47;;
77324;SDS011;66387;53.440;10.390;2023-05-07T12:40:39;4.00;;;2.22;;
77324;SDS011;66387;53.440;10.390;2023-05-07T12:43:06;4.88;;;2.20;;
77324;SDS011;66387;53.440;10.390;2023-05-07T12:45:36;2.67;;;2.47;;
77324;SDS011;66387;53.440;10.390;2023-05-07T12:48:03;3.60;;;2.30;;
77324;SDS011;66387;53.440;10.390;2023-05-07T12:50:32;2.65;;;2.35;;
77324;SDS011;66387;53.440;10.390;2023-05-07T12:52:58;2.20;;;2.00;;
77324;SDS011;66387;53.440;10.390;2023-05-07T12:55:24;2.92;;;2.08;;
77324;SDS011;66387;53.440;10.390;2023-05-07T12:57:49;2.97;;;2.15;;
77324;SDS011;66387;53.440;10.390;2023-05-07T13:00:16;3.40;;;2.13;;
77324;SDS011;66387;53.440;10.390;2023-05-07T13:02:42;2.33;;;2.08;;
77324;SDS011;66387;53.440;10.390;2023-05-07T13:05:11;3.00;;;1.85;;
77324;SDS011;66387;53.440;10.390;2023-05-07T13:07:37;2.77;;;2.23;;
77324;SDS011;66387;53.440;10.390;2023-05-07T13:10:03;2.60;;;2.10;;
77324;SDS011;66387;53.440;10.390;2023-05-07T13:12:28;2.95;;;2.45;;
77324;SDS011;66387;53.440;10.390;2023-05-07T13:14:54;2.50;;;2.05;;
77324;SDS011;66387;53.440;10.390;2023-05-07T13:17:19;3.70;;;2.60;;
77324;SDS011;66387;53.440;10.390;2023-05-07T13:19:44;3.67;;;2.70;;
77324;SDS011;66387;53.440;10.390;2023-05-07T13:22:09;2.63;;;2.20;;
77324;SDS011;66387;53.440;10.390;2023-05-07T13:24:35;3.13;;;2.28;;
77324;SDS011;66387;53.440;10.390;2023-05-07T13:27:01;2.40;;;2.20;;
77324;SDS011;66387;53.440;10.390;2023-05-07T13:29:26;3.03;;;2.30;;
77324;SDS011;66387;53.440;10.390;2023-05-07T13:31:56;5.88;;;3.15;;
77324;SDS011;66387;53.440;10.390;2023-05-07T13:34:21;3.67;;;2.33;;
77324;SDS011;66387;53.440;10.390;2023-05-07T13:36:47;4.68;;;2.38;;
77324;SDS011;66387;53.440;10.390;2023-05-07T13:39:12;3.60;;;2.30;;
77324;SDS011;66387;53.440;10.390;2023-05-07T13:41:37;3.17;;;2.20;;
77324;SDS011;66387;53.440;10.390;2023-05-07T13:44:02;2.80;;;2.10;;
77324;SDS011;66387;53.440;10.390;2023-05-07T13:46:28;2.92;;;2.60;;
77324;SDS011;66387;53.440;10.390;2023-05-07T13:48:54;2.90;;;2.28;;
77324;SDS011;66387;53.440;10.390;2023-05-07T13:51:20;3.27;;;2.30;;
77324;SDS011;66387;53.440;10.390;2023-05-07T13:53:45;3.80;;;2.13;;
77324;SDS011;66387;53.440;10.390;2023-05-07T13:56:10;2.13;;;1.83;;
77324;SDS011;66387;53.440;10.390;2023-05-07T13:58:35;4.03;;;2.40;;
77324;SDS011;66387;53.440;10.390;2023-05-07T14:01:01;3.33;;;2.33;;
77324;SDS011;66387;53.440;10.390;2023-05-07T14:03:26;2.40;;;2.10;;
77324;SDS011;66387;53.440;10.390;2023-05-07T14:05:51;3.93;;;2.50;;
77324;SDS011;66387;53.440;10.390;2023-05-07T14:08:17;4.10;;;2.20;;
77324;SDS011;66387;53.440;10.390;2023-05-07T14:13:09;2.67;;;2.00;;
77324;SDS011;66387;53.440;10.390;2023-05-07T14:15:35;2.28;;;1.88;;
77324;SDS011;66387;53.440;10.390;2023-05-07T14:18:01;4.43;;;2.45;;
77324;SDS011;66387;53.440;10.390;2023-05-07T14:20:26;2.67;;;2.47;;
77324;SDS011;66387;53.440;10.390;2023-05-07T14:22:52;3.10;;;2.33;;
77324;SDS011;66387;53.440;10.390;2023-05-07T14:25:17;4.60;;;2.70;;
77324;SDS011;66387;53.440;10.390;2023-05-07T14:27:42;2.90;;;2.40;;
77324;SDS011;66387;53.440;10.390;2023-05-07T14:30:08;2.80;;;2.47;;
77324;SDS011;66387;53.440;10.390;2023-05-07T14:32:33;2.92;;;2.10;;
77324;SDS011;66387;53.440;10.390;2023-05-07T14:34:59;2.70;;;2.05;;
77324;SDS011;66387;53.440;10.390;2023-05-07T14:37:24;3.15;;;2.45;;
77324;SDS011;66387;53.440;10.390;2023-05-07T14:39:50;4.63;;;2.60;;
77324;SDS011;66387;53.440;10.390;2023-05-07T14:42:15;2.50;;;2.30;;
77324;SDS011;66387;53.440;10.390;2023-05-07T14:44:40;2.43;;;2.20;;
77324;SDS011;66387;53.440;10.390;2023-05-07T14:47:06;2.72;;;2.20;;
77324;SDS011;66387;53.440;10.390;2023-05-07T14:49:33;5.15;;;2.10;;